Time;durP1;ratioP1;P1;durP2;ratioP2;P2;SDS_P1;SDS_P2;PMS_P1;PMS_P2;Temp;Humidity;BMP_temperature;BMP_pressure;BME280_temperature;BME280_humidity;BME280_pressure;Samples;Min_cycle;Max_cycle;Signal;HPM_P1;HPM_P2
2023/11/04 00:04:11;;;;;;;1999.90;999.90;;;;;;;11.53;72.89;98537.69;10331889;28;20139;-63
2023/11/04 00:09:14;;;;;;;1999.90;999.90;;;;;;;11.80;72.38;98526.31;10331004;28;20540;-62
2023/11/04 00:14:21;;;;;;;1999.90;999.90;;;;;;;11.66;73.12;98529.44;10331837;28;20119;-63
2023/11/04 00:19:23;;;;;;;1999.90;999.90;;;;;;;11.51;73.34;98524.72;10330674;28;20106;-63
2023/11/04 00:24:26;;;;;;;1999.90;999.90;;;;;;;11.99;72.58;98520.09;10331020;28;20058;-62
2023/11/04 00:29:28;;;;;;;1999.90;999.90;;;;;;;12.04;71.69;98519.63;10313792;28;20152;-63
2023/11/04 00:34:31;;;;;;;1999.90;999.90;;;;;;;11.78;73.00;98520.38;10330886;28;20085;-62
2023/11/04 00:39:33;;;;;;;1999.90;999.90;;;;;;;11.96;71.77;98512.53;10330613;28;20050;-63
2023/11/04 00:44:35;;;;;;;1999.90;999.90;;;;;;;12.11;71.86;98522.47;10329943;28;20453;-63
2023/11/04 00:49:38;;;;;;;1999.90;999.90;;;;;;;12.27;70.69;98512.06;10311617;28;20398;-63
2023/11/04 00:54:41;;;;;;;1999.90;999.90;;;;;;;12.28;71.58;98518.97;10313098;28;20054;-63
2023/11/04 00:59:43;;;;;;;1999.90;999.90;;;;;;;12.40;70.95;98517.72;10330027;28;20042;-63
2023/11/04 01:04:46;;;;;;;1999.90;999.90;;;;;;;12.18;71.33;98518.25;10329935;28;20082;-63
2023/11/04 01:09:48;;;;;;;1999.90;999.90;;;;;;;12.46;71.44;98516.28;10329764;28;20046;-63
2023/11/04 01:14:50;;;;;;;1999.90;999.90;;;;;;;12.24;71.70;98523.69;10329639;28;20078;-62
2023/11/04 01:19:53;;;;;;;1999.90;999.90;;;;;;;12.54;71.54;98512.88;10329229;28;20544;-62
2023/11/04 01:24:55;;;;;;;1999.90;999.90;;;;;;;12.89;71.33;98511.06;10329138;28;20058;-63
2023/11/04 01:29:57;;;;;;;1999.90;999.90;;;;;;;12.45;72.56;98499.69;10329181;28;20047;-62
2023/11/04 01:35:00;;;;;;;1999.90;999.90;;;;;;;12.53;71.41;98506.81;10328435;28;20050;-63
2023/11/04 01:40:07;;;;;;;1999.90;999.90;;;;;;;12.61;73.74;98498.97;10328903;28;20053;-63
2023/11/04 01:45:10;;;;;;;1999.90;999.90;;;;;;;12.52;73.05;98485.97;10328727;28;20054;-63
2023/11/04 01:50:12;;;;;;;1999.90;999.90;;;;;;;12.33;73.52;98482.59;10311611;28;20125;-62
2023/11/04 01:55:15;;;;;;;1999.90;999.90;;;;;;;12.73;72.94;98481.13;10327963;28;20057;-63
2023/11/04 02:00:17;;;;;;;1999.90;999.90;;;;;;;12.47;73.16;98482.97;10310908;28;20052;-62
2023/11/04 02:05:20;;;;;;;1999.90;999.90;;;;;;;12.92;73.05;98477.41;10328281;28;20046;-63
2023/11/04 02:10:22;;;;;;;1999.90;999.90;;;;;;;13.11;71.54;98462.34;10310296;28;20517;-63
2023/11/04 02:15:25;;;;;;;1999.90;999.90;;;;;;;12.83;73.33;98466.06;10327991;28;20061;-63
2023/11/04 02:20:28;;;;;;;1999.90;999.90;;;;;;;13.11;74.05;98460.56;10327312;28;20050;-63
2023/11/04 02:25:34;;;;;;;1999.90;999.90;;;;;;;13.14;73.53;98462.84;10294575;28;20054;-63
2023/11/04 02:30:37;;;;;;;1999.90;999.90;;;;;;;12.52;74.49;98455.28;10326926;28;20099;-63
2023/11/04 02:35:39;;;;;;;1999.90;999.90;;;;;;;12.74;74.37;98451.28;10363695;22;20053;-66
2023/11/04 02:40:41;;;;;;;1999.90;999.90;;;;;;;13.01;73.66;98438.84;10455924;28;20051;-66
2023/11/04 02:45:44;;;;;;;1999.90;999.90;;;;;;;12.99;73.36;98425.91;10455339;28;20453;-66
2023/11/04 02:50:46;;;;;;;1999.90;999.90;;;;;;;13.04;73.95;98422.78;10455153;28;20071;-66
2023/11/04 02:55:49;;;;;;;1999.90;999.90;;;;;;;13.33;73.66;98416.25;10455754;28;20076;-66
2023/11/04 03:00:51;;;;;;;1999.90;999.90;;;;;;;13.02;74.11;98422.13;10421072;28;20507;-66
2023/11/04 03:05:53;;;;;;;1999.90;999.90;;;;;;;13.07;73.57;98408.50;10437969;28;20057;-66
2023/11/04 03:10:56;;;;;;;1999.90;999.90;;;;;;;13.59;72.63;98405.59;10456757;28;20045;-66
2023/11/04 03:15:58;;;;;;;1999.90;999.90;;;;;;;13.15;74.10;98406.72;10462605;28;20048;-67
2023/11/04 03:21:07;;;;;;;1999.90;999.90;;;;;;;12.95;76.33;98405.38;10462520;28;20060;-66
2023/11/04 03:26:10;;;;;;;1999.90;999.90;;;;;;;13.71;73.88;98400.81;10427807;28;20512;-66
2023/11/04 03:31:13;;;;;;;1999.90;999.90;;;;;;;13.15;74.28;98403.28;10461510;28;20457;-66
2023/11/04 03:36:15;;;;;;;1999.90;999.90;;;;;;;12.79;78.37;98406.16;10443934;28;20135;-66
2023/11/04 03:41:18;;;;;;;1999.90;999.90;;;;;;;13.54;76.88;98397.38;10461738;28;20049;-66
2023/11/04 03:46:20;;;;;;;1999.90;999.90;;;;;;;13.75;75.92;98395.06;10461622;28;20052;-66
2023/11/04 03:51:22;;;;;;;1999.90;999.90;;;;;;;12.98;82.16;98390.09;10443709;28;20045;-66
2023/11/04 03:56:25;;;;;;;1999.90;999.90;;;;;;;12.77;80.96;98382.69;10443506;28;20053;-67
2023/11/04 04:01:27;;;;;;;1999.90;999.90;;;;;;;12.43;86.09;98380.94;10460901;28;20060;-67
2023/11/04 04:06:31;;;;;;;1999.90;999.90;;;;;;;13.12;84.75;98372.06;10460654;28;20056;-66
2023/11/04 04:11:33;;;;;;;1999.90;999.90;;;;;;;12.63;84.72;98372.81;10460536;28;20049;-67
2023/11/04 04:16:36;;;;;;;1999.90;999.90;;;;;;;13.04;85.79;98370.25;10460387;28;20154;-67
2023/11/04 04:21:39;;;;;;;1999.90;999.90;;;;;;;13.35;84.83;98359.94;10442093;28;20049;-66
2023/11/04 04:26:41;;;;;;;1999.90;999.90;;;;;;;13.20;85.11;98365.00;10441294;28;20118;-66
2023/11/04 04:31:43;;;;;;;1999.90;999.90;;;;;;;13.25;84.18;98358.44;10459349;28;20045;-66
2023/11/04 04:36:46;;;;;;;1999.90;999.90;;;;;;;12.87;87.03;98353.66;10441544;28;20155;-67
2023/11/04 04:41:48;;;;;;;1999.90;999.90;;;;;;;13.29;85.28;98350.03;10459400;28;20072;-67
2023/11/04 04:46:51;;;;;;;1999.90;999.90;;;;;;;12.60;90.29;98346.88;10441725;28;20055;-67
2023/11/04 04:51:54;;;;;;;1999.90;999.90;;;;;;;12.68;87.77;98333.78;10441415;28;20052;-67
2023/11/04 04:56:56;;;;;;;1999.90;999.90;;;;;;;13.29;85.54;98325.59;10441240;28;20394;-67
2023/11/04 05:02:03;;;;;;;1999.90;999.90;;;;;;;13.05;86.96;98329.88;10458399;28;20087;-67
2023/11/04 05:07:05;;;;;;;1999.90;999.90;;;;;;;12.85;88.90;98318.84;10440836;28;20052;-67
2023/11/04 05:12:08;;;;;;;1999.90;999.90;;;;;;;13.05;87.80;98308.03;10458239;28;20048;-67
2023/11/04 05:17:10;;;;;;;1999.90;999.90;;;;;;;13.33;86.30;98298.00;10458004;28;20049;-67
2023/11/04 05:22:13;;;;;;;1999.90;999.90;;;;;;;12.88;90.84;98304.56;10457669;28;20051;-67
2023/11/04 05:27:15;;;;;;;1999.90;999.90;;;;;;;12.90;88.23;98300.81;10457653;28;20056;-67
2023/11/04 05:32:17;;;;;;;1999.90;999.90;;;;;;;12.90;88.36;98287.69;10423706;28;20055;-67
2023/11/04 05:37:20;;;;;;;1999.90;999.90;;;;;;;12.81;85.69;98281.59;10456206;28;20612;-67
2023/11/04 05:42:23;;;;;;;1999.90;999.90;;;;;;;13.47;83.62;98278.94;10457132;28;20044;-67
2023/11/04 05:47:26;;;;;;;1999.90;999.90;;;;;;;13.58;84.17;98269.84;10457067;28;20127;-67
2023/11/04 05:52:28;;;;;;;1999.90;999.90;;;;;;;12.97;86.59;98274.72;10438678;28;20478;-67
2023/11/04 05:57:31;;;;;;;1999.90;999.90;;;;;;;12.76;86.97;98265.53;10456217;28;20521;-67
2023/11/04 06:02:33;;;;;;;1999.90;999.90;;;;;;;12.68;87.52;98260.28;10456659;28;20405;-67
2023/11/04 06:07:36;;;;;;;1999.90;999.90;;;;;;;12.35;89.25;98249.72;10456647;28;20052;-67
2023/11/04 06:12:39;;;;;;;1999.90;999.90;;;;;;;12.77;85.66;98250.59;10438932;28;20041;-67
2023/11/04 06:17:41;;;;;;;1999.90;999.90;;;;;;;12.99;83.73;98246.47;10456656;28;20063;-67
2023/11/04 06:22:44;;;;;;;1999.90;999.90;;;;;;;12.29;88.23;98249.56;10455718;28;20505;-67
2023/11/04 06:27:46;;;;;;;1999.90;999.90;;;;;;;12.83;85.11;98244.69;10455690;28;20531;-67
2023/11/04 06:32:48;;;;;;;1999.90;999.90;;;;;;;12.41;86.46;98238.59;10455579;28;20045;-67
2023/11/04 06:37:51;;;;;;;1999.90;999.90;;;;;;;12.23;85.58;98235.28;10438337;28;20061;-67
2023/11/04 06:42:54;;;;;;;1999.90;999.90;;;;;;;12.20;88.44;98233.78;10455906;28;20072;-67
2023/11/04 06:47:59;;;;;;;1999.90;999.90;;;;;;;13.35;83.57;98227.72;10442264;28;20490;-67
2023/11/04 06:53:02;;;;;;;1999.90;999.90;;;;;;;12.58;85.04;98230.75;10446131;28;20048;-67
2023/11/04 06:58:04;;;;;;;1999.90;999.90;;;;;;;12.83;86.20;98218.44;10463508;28;20133;-67
2023/11/04 07:03:07;;;;;;;1999.90;999.90;;;;;;;12.56;84.81;98222.22;10445573;28;20049;-67
2023/11/04 07:08:09;;;;;;;1999.90;999.90;;;;;;;12.74;85.79;98220.25;10463152;28;20049;-67
2023/11/04 07:13:12;;;;;;;1999.90;999.90;;;;;;;13.70;81.30;98209.84;10444605;28;20447;-67
2023/11/04 07:18:17;;;;;;;1999.90;999.90;;;;;;;14.00;77.78;98208.22;10463298;28;20099;-67
2023/11/04 07:23:20;;;;;;;1999.90;999.90;;;;;;;13.49;78.91;98203.34;10462506;28;20053;-67
2023/11/04 07:28:23;;;;;;;1999.90;999.90;;;;;;;13.96;77.72;98193.78;10461715;28;20409;-67
2023/11/04 07:33:25;;;;;;;1999.90;999.90;;;;;;;14.01;75.27;98173.03;10462094;28;20041;-67
2023/11/04 07:38:27;;;;;;;1999.90;999.90;;;;;;;13.02;78.86;98172.59;10461702;28;20085;-67
2023/11/04 07:43:32;;;;;;;1999.90;999.90;;;;;;;13.15;79.16;98178.16;10461669;28;20045;-67
2023/11/04 07:48:35;;;;;;;1999.90;999.90;;;;;;;13.17;78.73;98175.34;10461449;28;20053;-67
2023/11/04 07:53:37;;;;;;;1999.90;999.90;;;;;;;13.61;77.63;98156.47;10461292;28;20053;-67
2023/11/04 07:58:40;;;;;;;1999.90;999.90;;;;;;;13.94;77.47;98151.06;10460240;28;20078;-67
2023/11/04 08:03:42;;;;;;;1999.90;999.90;;;;;;;13.69;79.03;98151.19;10460870;28;20049;-67
2023/11/04 08:08:45;;;;;;;1999.90;999.90;;;;;;;14.46;74.76;98136.34;10460627;28;20123;-67
2023/11/04 08:13:47;;;;;;;1999.90;999.90;;;;;;;15.32;73.31;98120.19;10460631;28;20049;-67
2023/11/04 08:18:49;;;;;;;1999.90;999.90;;;;;;;16.18;69.93;98104.47;10459718;28;20477;-67
2023/11/04 08:23:53;;;;;;;1999.90;999.90;;;;;;;16.81;68.76;98101.91;10459948;28;20409;-67
2023/11/04 08:28:55;;;;;;;1999.90;999.90;;;;;;;17.07;64.63;98074.00;10459950;28;20053;-67
2023/11/04 08:33:58;;;;;;;1999.90;999.90;;;;;;;16.19;67.59;98063.03;10459763;28;20049;-68
2023/11/04 08:39:01;;;;;;;1999.90;999.90;;;;;;;17.67;63.82;98065.44;10459194;28;20408;-67
2023/11/04 08:44:03;;;;;;;1999.90;999.90;;;;;;;15.22;67.77;98060.66;10458676;28;20371;-68
2023/11/04 08:49:09;;;;;;;1999.90;999.90;;;;;;;15.30;70.92;98057.09;10459202;28;20071;-67
2023/11/04 08:54:13;;;;;;;1999.90;999.90;;;;;;;15.98;68.79;98051.50;10441164;28;20053;-67
2023/11/04 08:59:15;;;;;;;1999.90;999.90;;;;;;;14.77;71.14;98056.44;10440770;28;20405;-67
2023/11/04 09:04:18;;;;;;;1999.90;999.90;;;;;;;16.26;69.22;98051.53;10458550;28;20049;-67
2023/11/04 09:09:29;;;;;;;;;;;;;;;18.35;62.53;98033.56;10441475;28;20457;-67
2023/11/04 09:14:32;;;;;;;1999.90;999.90;;;;;;;17.73;60.53;98027.59;10440620;28;19986;-68
2023/11/04 09:19:35;;;;;;;1999.90;999.90;;;;;;;20.33;60.64;98016.03;10457984;28;20055;-68
2023/11/04 09:24:37;;;;;;;1999.90;999.90;;;;;;;20.19;58.28;98006.56;10457728;28;20041;-68
2023/11/04 09:29:40;;;;;;;1999.90;999.90;;;;;;;17.30;64.07;98002.31;10440507;28;20053;-68
2023/11/04 09:34:42;;;;;;;1999.90;999.90;;;;;;;17.39;62.70;97992.34;10439988;28;20052;-68
2023/11/04 09:39:45;;;;;;;1999.90;999.90;;;;;;;18.56;61.55;97982.97;10457041;28;20049;-68
2023/11/04 09:44:47;;;;;;;1999.90;999.90;;;;;;;16.82;63.03;97987.25;10438766;28;20552;-68
2023/11/04 09:49:50;;;;;;;1999.90;999.90;;;;;;;16.86;63.20;97985.91;10438832;28;20413;-68
2023/11/04 09:54:53;;;;;;;1999.90;999.90;;;;;;;15.74;63.13;97973.56;10456884;28;20045;-67
2023/11/04 09:59:55;;;;;;;1999.90;999.90;;;;;;;16.17;65.17;97968.22;10439276;28;20064;-67
2023/11/04 10:04:58;;;;;;;1999.90;999.90;;;;;;;16.16;64.57;97956.03;10456689;28;20045;-68
2023/11/04 10:10:03;;;;;;;1999.90;999.90;;;;;;;16.20;65.76;97933.50;10456072;28;20452;-68
2023/11/04 10:15:17;;;;;;;1999.90;999.90;;;;;;;15.98;65.69;97915.09;10457102;28;20049;-67
2023/11/04 10:20:20;;;;;;;1999.90;999.90;;;;;;;16.21;66.48;97902.69;10440884;28;20503;-68
2023/11/04 10:25:23;;;;;;;1999.90;999.90;;;;;;;16.22;66.19;97894.53;10430806;28;20580;-68
2023/11/04 10:30:25;;;;;;;1999.90;999.90;;;;;;;16.17;65.96;97889.03;10430888;28;20049;-68
2023/11/04 10:35:28;;;;;;;1999.90;999.90;;;;;;;16.22;66.13;97872.63;10446484;28;20057;-68
2023/11/04 10:40:30;;;;;;;1999.90;999.90;;;;;;;16.35;65.06;97852.34;10464320;28;20129;-68
2023/11/04 10:46:02;;;;;;;1999.90;999.90;;;;;;;16.52;64.35;97833.53;10463982;28;20045;-67
2023/11/04 10:51:29;;;;;;;1999.90;999.90;;;;;;;15.55;66.22;97822.06;10442985;28;20045;-68
2023/11/04 10:56:39;;;;;;;1999.90;999.90;;;;;;;15.84;65.55;97801.81;10440747;28;20053;-67
2023/11/04 11:01:41;;;;;;;1999.90;999.90;;;;;;;15.88;67.44;97789.84;10446014;28;20111;-67
2023/11/04 11:06:45;;;;;;;1999.90;999.90;;;;;;;15.41;66.41;97777.16;10428679;28;20481;-67
2023/11/04 11:12:06;;;;;;;1999.90;999.90;;;;;;;16.11;65.99;97760.50;10445424;28;20045;-67
2023/11/04 11:17:09;;;;;;;1999.90;999.90;;;;;;;15.52;66.05;97743.38;10428817;28;20045;-68
2023/11/04 11:22:23;;;;;;;1999.90;999.90;;;;;;;15.56;67.11;97729.59;10462101;28;20128;-67
2023/11/04 11:27:26;;;;;;;1999.90;999.90;;;;;;;16.28;64.55;97708.97;10444762;28;20057;-67
2023/11/04 11:32:34;;;;;;;1999.90;999.90;;;;;;;16.23;65.53;97705.31;10443931;28;20041;-67
2023/11/04 11:37:37;;;;;;;1999.90;999.90;;;;;;;16.05;65.68;97692.69;10461487;28;20494;-67
2023/11/04 11:42:39;;;;;;;1999.90;999.90;;;;;;;15.83;67.21;97679.63;10443409;28;20045;-67
2023/11/04 11:47:42;;;;;;;1999.90;999.90;;;;;;;15.44;68.79;97682.88;10461014;28;20485;-68
2023/11/04 11:52:44;;;;;;;1999.90;999.90;;;;;;;14.96;72.53;97675.69;10443090;28;20045;-68
2023/11/04 11:57:47;;;;;;;1999.90;999.90;;;;;;;14.84;74.54;97655.19;10443698;28;20045;-67
2023/11/04 12:02:51;;;;;;;1999.90;999.90;;;;;;;15.05;75.98;97629.78;10460963;28;20098;-68
2023/11/04 12:07:54;;;;;;;1999.90;999.90;;;;;;;15.33;76.48;97607.78;10427191;28;20132;-68
2023/11/04 12:12:59;;;;;;;1999.90;999.90;;;;;;;15.36;75.54;97596.88;10460099;28;20128;-68
2023/11/04 12:18:05;;;;;;;1999.90;999.90;;;;;;;14.46;77.20;97583.59;10460561;28;20049;-68
2023/11/04 12:23:13;;;;;;;1999.90;999.90;;;;;;;14.77;79.11;97567.41;10442788;28;20052;-68
2023/11/04 12:28:16;;;;;;;1999.90;999.90;;;;;;;14.49;78.58;97555.06;10442977;28;20056;-68
2023/11/04 12:33:20;;;;;;;1999.90;999.90;;;;;;;14.29;80.60;97538.31;10442259;28;20048;-68
2023/11/04 12:38:23;;;;;;;1999.90;999.90;;;;;;;14.57;80.47;97514.59;10459099;28;20659;-68
2023/11/04 12:43:27;;;;;;;1999.90;999.90;;;;;;;13.55;85.19;97485.09;10458397;28;20051;-67
2023/11/04 12:48:31;;;;;;;1999.90;999.90;;;;;;;13.85;85.01;97465.72;10459225;28;20095;-67
2023/11/04 12:53:36;;;;;;;1999.90;999.90;;;;;;;13.27;87.86;97453.47;10458445;28;20414;-67
2023/11/04 12:58:38;;;;;;;1999.90;999.90;;;;;;;13.53;87.42;97437.19;10441599;28;20053;-67
2023/11/04 13:03:41;;;;;;;1999.90;999.90;;;;;;;13.35;89.71;97411.34;10458556;28;20052;-67
2023/11/04 13:08:43;;;;;;;1999.90;999.90;;;;;;;13.27;89.64;97387.00;10458520;28;20110;-67
2023/11/04 13:13:46;;;;;;;1999.90;999.90;;;;;;;13.24;91.33;97376.84;10457582;28;20041;-67
2023/11/04 13:18:55;;;;;;;1999.90;999.90;;;;;;;13.65;91.10;97373.56;10492704;28;20391;-67
2023/11/04 13:23:57;;;;;;;1999.90;999.90;;;;;;;13.36;89.96;97364.84;10432587;22;20123;-68
2023/11/04 13:29:00;;;;;;;1999.90;999.90;;;;;;;13.44;89.85;97345.53;10409599;28;20053;-68
2023/11/04 13:34:03;;;;;;;1999.90;999.90;;;;;;;13.02;91.55;97348.78;10409422;28;20057;-68
2023/11/04 13:39:09;;;;;;;1999.90;999.90;;;;;;;13.37;91.62;97333.13;10408742;28;20049;-67
2023/11/04 13:44:14;;;;;;;1999.90;999.90;;;;;;;13.85;88.47;97324.56;10409783;28;20088;-67
2023/11/04 13:49:16;;;;;;;1999.90;999.90;;;;;;;13.43;88.26;97322.88;10408881;28;20579;-68
2023/11/04 13:54:19;;;;;;;1999.90;999.90;;;;;;;12.69;92.50;97306.44;10408037;28;20061;-68
2023/11/04 13:59:21;;;;;;;1999.90;999.90;;;;;;;12.80;93.62;97300.69;10391105;28;20492;-64
2023/11/04 14:04:24;;;;;;;1999.90;999.90;;;;;;;13.36;89.39;97293.91;10408923;28;20046;-65
2023/11/04 14:09:27;;;;;;;1999.90;999.90;;;;;;;13.65;87.16;97302.59;10407570;28;20052;-67
2023/11/04 14:14:29;;;;;;;1999.90;999.90;;;;;;;13.65;86.74;97287.66;10407839;28;20473;-66
2023/11/04 14:19:32;;;;;;;1999.90;999.90;;;;;;;13.75;86.38;97280.22;10408322;28;20056;-66
2023/11/04 14:24:34;;;;;;;1999.90;999.90;;;;;;;13.58;86.00;97265.75;10406225;28;20050;-66
2023/11/04 14:29:37;;;;;;;1999.90;999.90;;;;;;;13.31;92.11;97241.09;10383202;28;20054;-66
2023/11/04 14:34:40;;;;;;;1999.90;999.90;;;;;;;13.39;94.36;97251.50;10379526;28;20481;-66
2023/11/04 14:39:45;;;;;;;1999.90;999.90;;;;;;;13.54;89.95;97244.31;10379170;28;20137;-66
2023/11/04 14:44:47;;;;;;;1999.90;999.90;;;;;;;13.16;89.92;97243.84;10378371;28;20523;-66
2023/11/04 14:49:50;;;;;;;1999.90;999.90;;;;;;;12.94;93.32;97228.13;10379944;28;20056;-66
2023/11/04 14:54:52;;;;;;;1999.90;999.90;;;;;;;12.87;96.86;97226.47;10361610;28;20477;-66
2023/11/04 14:59:54;;;;;;;1999.90;999.90;;;;;;;12.63;94.75;97217.97;10379584;28;20141;-66
2023/11/04 15:04:57;;;;;;;1999.90;999.90;;;;;;;13.23;93.83;97213.19;10378702;28;20527;-66
2023/11/04 15:09:59;;;;;;;1999.90;999.90;;;;;;;13.10;94.11;97194.72;10379205;28;20077;-66
2023/11/04 15:15:03;;;;;;;1999.90;999.90;;;;;;;13.03;93.16;97189.41;10378501;28;20488;-66
2023/11/04 15:20:07;;;;;;;1999.90;999.90;;;;;;;13.79;90.41;97188.63;10377854;28;20050;-66
2023/11/04 15:25:10;;;;;;;1999.90;999.90;;;;;;;12.82;96.30;97191.06;10378572;28;20064;-66
2023/11/04 15:30:13;;;;;;;1999.90;999.90;;;;;;;13.16;90.93;97180.78;10377290;28;20060;-66
2023/11/04 15:35:16;;;;;;;1999.90;999.90;;;;;;;13.72;89.68;97170.19;10376330;28;20512;-66
2023/11/04 15:40:19;;;;;;;1999.90;999.90;;;;;;;13.13;92.96;97168.88;10377052;28;20056;-66
2023/11/04 15:45:21;;;;;;;1999.90;999.90;;;;;;;12.75;93.11;97169.22;10377804;28;20137;-67
2023/11/04 15:50:24;;;;;;;1999.90;999.90;;;;;;;12.96;96.06;97160.50;10376962;28;20409;-66
2023/11/04 15:55:26;;;;;;;1999.90;999.90;;;;;;;13.55;92.17;97159.22;10376201;28;20050;-66
2023/11/04 16:00:29;;;;;;;1999.90;999.90;;;;;;;12.82;94.25;97161.38;10376083;28;20056;-66
2023/11/04 16:05:33;;;;;;;1999.90;999.90;;;;;;;13.16;94.68;97157.16;10377015;28;20047;-66
2023/11/04 16:10:35;;;;;;;1999.90;999.90;;;;;;;13.55;91.69;97156.59;10376842;28;20054;-66
2023/11/04 16:15:38;;;;;;;1999.90;999.90;;;;;;;13.36;93.04;97149.41;10376589;28;20129;-66
2023/11/04 16:20:40;;;;;;;1999.90;999.90;;;;;;;13.51;90.46;97146.66;10375736;28;20556;-66
2023/11/04 16:25:43;;;;;;;1999.90;999.90;;;;;;;12.93;94.09;97145.13;10375134;28;20056;-66
2023/11/04 16:30:45;;;;;;;1999.90;999.90;;;;;;;13.25;93.24;97136.81;10375438;28;20054;-66
2023/11/04 16:35:47;;;;;;;1999.90;999.90;;;;;;;13.19;92.90;97120.81;10358629;28;20046;-66
2023/11/04 16:40:50;;;;;;;1999.90;999.90;;;;;;;13.43;91.10;97115.28;10374033;28;20417;-66
2023/11/04 16:45:53;;;;;;;1999.90;999.90;;;;;;;13.51;90.50;97112.50;10375661;28;20124;-66
2023/11/04 16:50:55;;;;;;;1999.90;999.90;;;;;;;13.27;92.54;97113.78;10375285;28;20107;-66
2023/11/04 16:55:58;;;;;;;1999.90;999.90;;;;;;;13.63;92.06;97107.47;10373482;28;20461;-67
2023/11/04 17:01:00;;;;;;;1999.90;999.90;;;;;;;14.08;88.56;97102.53;10374610;28;20053;-66
2023/11/04 17:06:04;;;;;;;1999.90;999.90;;;;;;;13.65;89.20;97095.78;10374510;28;20377;-66
2023/11/04 17:11:06;;;;;;;1999.90;999.90;;;;;;;13.35;91.10;97090.81;10374348;28;20401;-66
2023/11/04 17:16:10;;;;;;;1999.90;999.90;;;;;;;13.79;88.44;97080.84;10374778;28;20092;-66
2023/11/04 17:21:13;;;;;;;1999.90;999.90;;;;;;;13.48;90.17;97083.97;10373368;28;20062;-66
2023/11/04 17:26:15;;;;;;;1999.90;999.90;;;;;;;13.35;89.35;97079.50;10373641;28;20046;-66
2023/11/04 17:31:18;;;;;;;1999.90;999.90;;;;;;;13.60;90.63;97077.16;10372825;28;20382;-66
2023/11/04 17:36:20;;;;;;;1999.90;999.90;;;;;;;13.37;89.12;97073.03;10373822;28;20473;-66
2023/11/04 17:41:22;;;;;;;1999.90;999.90;;;;;;;13.31;90.46;97084.28;10374432;28;20054;-66
2023/11/04 17:46:25;;;;;;;1999.90;999.90;;;;;;;13.91;88.64;97073.16;10374226;28;20061;-66
2023/11/04 17:51:27;;;;;;;1999.90;999.90;;;;;;;13.47;90.79;97077.13;10372963;28;20057;-66
2023/11/04 17:56:30;;;;;;;1999.90;999.90;;;;;;;13.51;90.47;97079.13;10372905;28;20046;-66
2023/11/04 18:01:32;;;;;;;1999.90;999.90;;;;;;;14.00;87.71;97076.41;10374568;28;20485;-66
2023/11/04 18:06:34;;;;;;;1999.90;999.90;;;;;;;13.69;88.86;97081.22;10381672;28;20121;-66
2023/11/04 18:11:37;;;;;;;1999.90;999.90;;;;;;;13.68;91.26;97078.78;10381499;28;20058;-66
2023/11/04 18:16:40;;;;;;;1999.90;999.90;;;;;;;13.47;89.87;97077.13;10380051;28;20052;-66
2023/11/04 18:21:46;;;;;;;1999.90;999.90;;;;;;;14.23;86.97;97082.09;10380283;28;20601;-66
2023/11/04 18:26:48;;;;;;;1999.90;999.90;;;;;;;14.09;88.45;97075.22;10380918;28;20121;-66
2023/11/04 18:31:51;;;;;;;1999.90;999.90;;;;;;;13.63;91.85;97078.56;10380035;28;20056;-66
2023/11/04 18:36:53;;;;;;;1999.90;999.90;;;;;;;14.18;88.89;97054.78;10379760;28;20056;-67
2023/11/04 18:41:56;;;;;;;1999.90;999.90;;;;;;;14.27;91.38;97061.44;10380323;28;20054;-67
2023/11/04 18:46:58;;;;;;;1999.90;999.90;;;;;;;14.03;92.01;97061.03;10378846;28;20042;-67
2023/11/04 18:52:01;;;;;;;1999.90;999.90;;;;;;;13.81;92.63;97057.78;10379320;28;20053;-67
2023/11/04 18:57:04;;;;;;;1999.90;999.90;;;;;;;13.97;93.44;97050.50;10379648;28;20046;-67
2023/11/04 19:02:07;;;;;;;1999.90;999.90;;;;;;;13.90;95.22;97109.19;10379588;28;20068;-67
2023/11/04 19:07:09;;;;;;;1999.90;999.90;;;;;;;13.93;88.16;97105.31;10377651;28;20452;-67
2023/11/04 19:12:12;;;;;;;1999.90;999.90;;;;;;;14.04;87.03;97098.69;10378474;28;20057;-67
2023/11/04 19:17:14;;;;;;;1999.90;999.90;;;;;;;13.85;87.26;97095.00;10378969;28;20129;-67
2023/11/04 19:22:17;;;;;;;1999.90;999.90;;;;;;;13.38;89.59;97098.31;10377172;28;20137;-66
2023/11/04 19:27:19;;;;;;;1999.90;999.90;;;;;;;14.42;86.00;97090.19;10378602;28;20049;-67
2023/11/04 19:32:21;;;;;;;1999.90;999.90;;;;;;;14.25;85.12;97080.06;10376645;28;20053;-67
2023/11/04 19:37:24;;;;;;;1999.90;999.90;;;;;;;13.54;88.97;97060.34;10378111;28;20133;-67
2023/11/04 19:42:26;;;;;;;1999.90;999.90;;;;;;;13.72;90.47;97106.31;10378435;28;20054;-67
2023/11/04 19:47:29;;;;;;;1999.90;999.90;;;;;;;13.42;93.14;97084.78;10377139;28;20508;-65
2023/11/04 19:52:31;;;;;;;1999.90;999.90;;;;;;;13.24;99.23;97087.91;10377734;28;20132;-66
2023/11/04 19:57:34;;;;;;;1999.90;999.90;;;;;;;13.93;94.65;97086.91;10376642;28;20474;-66
2023/11/04 20:02:37;;;;;;;1999.90;999.90;;;;;;;14.02;92.32;97087.53;10377221;28;20054;-66
2023/11/04 20:07:39;;;;;;;1999.90;999.90;;;;;;;14.06;90.84;97081.69;10377033;28;20054;-66
2023/11/04 20:12:41;;;;;;;1999.90;999.90;;;;;;;14.12;93.18;97090.56;10375071;28;20050;-65
2023/11/04 20:17:44;;;;;;;1999.90;999.90;;;;;;;14.17;91.70;97095.25;10376149;28;20050;-65
2023/11/04 20:22:46;;;;;;;1999.90;999.90;;;;;;;13.80;93.81;97092.97;10375662;28;20062;-65
2023/11/04 20:27:49;;;;;;;1999.90;999.90;;;;;;;13.50;93.33;97098.56;10375788;28;20393;-65
2023/11/04 20:32:51;;;;;;;1999.90;999.90;;;;;;;14.22;92.21;97103.34;10375488;28;20505;-65
2023/11/04 20:37:55;;;;;;;1999.90;999.90;;;;;;;14.01;93.81;97114.84;10375930;28;20073;-66
2023/11/04 20:42:57;;;;;;;1999.90;999.90;;;;;;;13.94;93.90;97109.59;10374615;28;20056;-65
2023/11/04 20:48:01;;;;;;;1999.90;999.90;;;;;;;13.56;92.12;97112.72;10375632;28;20046;-66
2023/11/04 20:53:03;;;;;;;1999.90;999.90;;;;;;;13.71;92.16;97115.19;10375166;28;20477;-65
2023/11/04 20:58:06;;;;;;;1999.90;999.90;;;;;;;13.84;92.27;97125.75;10375448;28;20092;-65
2023/11/04 21:03:08;;;;;;;1999.90;999.90;;;;;;;14.03;90.25;97125.97;10375260;28;20058;-65
2023/11/04 21:08:12;;;;;;;1999.90;999.90;;;;;;;13.39;92.33;97133.25;10375136;28;20050;-66
2023/11/04 21:13:14;;;;;;;1999.90;999.90;;;;;;;13.60;94.82;97131.53;10374998;28;20064;-65
2023/11/04 21:18:17;;;;;;;1999.90;999.90;;;;;;;13.80;93.64;97116.66;10374777;28;20088;-65
2023/11/04 21:23:19;;;;;;;1999.90;999.90;;;;;;;13.95;91.58;97121.72;10372850;28;20601;-65
2023/11/04 21:28:21;;;;;;;1999.90;999.90;;;;;;;13.51;93.02;97120.38;10374704;28;20050;-65
2023/11/04 21:33:24;;;;;;;1999.90;999.90;;;;;;;13.82;93.55;97122.50;10374701;28;20061;-65
2023/11/04 21:38:27;;;;;;;1999.90;999.90;;;;;;;13.74;92.61;97120.06;10377645;28;20080;-65
2023/11/04 21:43:30;;;;;;;1999.90;999.90;;;;;;;13.27;93.98;97122.47;10382627;28;20089;-65
2023/11/04 21:48:32;;;;;;;1999.90;999.90;;;;;;;13.34;93.01;97118.09;10382427;28;20411;-65
2023/11/04 21:53:35;;;;;;;1999.90;999.90;;;;;;;13.73;95.51;97121.06;10382255;28;20057;-65
2023/11/04 21:58:37;;;;;;;1999.90;999.90;;;;;;;13.66;91.25;97121.03;10382032;28;20136;-65
2023/11/04 22:03:42;;;;;;;1999.90;999.90;;;;;;;13.24;90.73;97119.44;10382422;28;20054;-66
2023/11/04 22:08:44;;;;;;;1999.90;999.90;;;;;;;13.56;90.99;97112.72;10380511;28;20100;-65
2023/11/04 22:13:48;;;;;;;1999.90;999.90;;;;;;;14.23;87.74;97113.66;10379632;28;20049;-65